Time;durP1;ratioP1;P1;durP2;ratioP2;P2;SDS_P1;SDS_P2;PMS_P1;PMS_P2;Temp;Humidity;BMP_temperature;BMP_pressure;BME280_temperature;BME280_humidity;BME280_pressure;Samples;Min_cycle;Max_cycle;Signal;HPM_P1;HPM_P2
2023/01/06 00:02:20;;;;;;;3.60;2.80;;;;;;;2.70;80.84;100300.86;125161;1311;107661;-72
2023/01/06 00:05:27;;;;;;;3.90;2.90;;;;;;;2.66;81.03;100303.55;125171;1313;107404;-71
2023/01/06 00:08:33;;;;;;;3.90;2.50;;;;;;;2.63;81.45;100296.92;125117;1313;108548;-71
2023/01/06 00:11:39;;;;;;;4.10;3.00;;;;;;;2.62;81.81;100309.63;125168;1303;107714;-71
2023/01/06 00:14:46;;;;;;;3.90;3.10;;;;;;;2.65;81.95;100321.90;125163;1312;108693;-73
2023/01/06 00:17:51;;;;;;;5.10;3.60;;;;;;;2.66;82.03;100325.83;125249;1313;108572;-71
2023/01/06 00:20:59;;;;;;;6.10;3.50;;;;;;;2.67;82.12;100330.20;125187;1312;109313;-71
2023/01/06 00:24:05;;;;;;;4.80;3.20;;;;;;;2.66;82.08;100325.88;125292;1311;108697;-72
2023/01/06 00:27:11;;;;;;;6.00;3.20;;;;;;;2.66;82.28;100330.82;125248;1303;107565;-73
2023/01/06 00:30:17;;;;;;;3.90;3.10;;;;;;;2.70;82.12;100335.45;125184;1303;107410;-71
2023/01/06 00:33:24;;;;;;;4.20;3.30;;;;;;;2.75;82.11;100340.72;125190;1312;107546;-71
2023/01/06 00:36:30;;;;;;;4.90;3.30;;;;;;;2.75;81.67;100343.55;125173;1305;107417;-71
2023/01/06 00:39:36;;;;;;;4.50;3.60;;;;;;;2.74;81.67;100346.41;125198;1311;107520;-72
2023/01/06 00:42:41;;;;;;;4.00;3.30;;;;;;;2.68;81.52;100353.11;125178;1312;107549;-72
2023/01/06 00:45:47;;;;;;;4.20;3.10;;;;;;;2.61;81.39;100358.69;125183;1313;105674;-73
2023/01/06 00:48:54;;;;;;;3.90;2.80;;;;;;;2.51;81.36;100359.30;125181;1311;107581;-72
2023/01/06 00:51:59;;;;;;;5.00;3.40;;;;;;;2.50;81.59;100368.34;125164;1313;107586;-71
2023/01/06 00:55:06;;;;;;;6.00;3.80;;;;;;;2.51;81.76;100378.98;125033;1305;107864;-72
2023/01/06 00:58:12;;;;;;;7.00;4.90;;;;;;;2.56;81.95;100381.88;125150;1313;107809;-71
2023/01/06 01:01:17;;;;;;;7.80;5.00;;;;;;;2.55;82.11;100379.97;125142;1309;109254;-73
2023/01/06 01:04:24;;;;;;;6.10;4.30;;;;;;;2.52;82.18;100386.84;125175;1309;107505;-71
2023/01/06 01:07:30;;;;;;;6.40;3.90;;;;;;;2.46;82.21;100395.62;125188;1312;107288;-71
2023/01/06 01:10:37;;;;;;;6.00;4.00;;;;;;;2.41;82.00;100397.93;125186;1311;107502;-71
2023/01/06 01:13:42;;;;;;;6.80;4.70;;;;;;;2.37;82.16;100402.17;125160;1310;107466;-71
2023/01/06 01:16:48;;;;;;;6.80;4.20;;;;;;;2.34;82.01;100408.70;125162;1296;107572;-71
2023/01/06 01:19:56;;;;;;;6.20;4.30;;;;;;;2.30;81.86;100419.44;125158;1313;107562;-73
2023/01/06 01:23:02;;;;;;;5.60;4.50;;;;;;;2.29;81.98;100424.25;125348;1303;107453;-72
2023/01/06 01:26:07;;;;;;;6.50;4.00;;;;;;;2.29;81.69;100435.52;125197;1316;108629;-73
2023/01/06 01:29:15;;;;;;;5.20;3.70;;;;;;;2.28;82.00;100438.88;125132;1295;106700;-73
2023/01/06 01:32:20;;;;;;;5.50;3.60;;;;;;;2.30;81.78;100443.00;125281;1312;108496;-71
2023/01/06 01:35:26;;;;;;;5.90;4.20;;;;;;;2.33;81.93;100446.98;126447;1312;107556;-72
2023/01/06 01:38:31;;;;;;;6.60;4.40;;;;;;;2.40;82.00;100456.29;126668;1305;108680;-70
2023/01/06 01:41:37;;;;;;;5.70;4.40;;;;;;;2.43;81.90;100458.52;125062;1312;107192;-71
2023/01/06 01:44:59;;;;;;;5.60;4.30;;;;;;;2.40;82.04;100471.20;125131;1308;107403;-71
2023/01/06 01:48:09;;;;;;;5.80;4.10;;;;;;;2.32;82.28;100482.54;125135;1313;108118;-71
2023/01/06 01:51:19;;;;;;;5.20;3.40;;;;;;;2.33;82.49;100491.08;125088;1311;108624;-72
2023/01/06 01:54:29;;;;;;;5.20;3.80;;;;;;;2.39;82.47;100498.82;125088;1311;107575;-71
2023/01/06 01:57:39;;;;;;;5.70;3.70;;;;;;;2.45;82.38;100504.04;125300;1303;107387;-72
2023/01/06 02:00:45;;;;;;;5.90;3.90;;;;;;;2.48;82.15;100511.79;125104;1313;108599;-70
2023/01/06 02:03:52;;;;;;;6.00;4.10;;;;;;;2.42;82.04;100513.00;125057;1313;107450;-70
2023/01/06 02:06:58;;;;;;;5.50;4.00;;;;;;;2.40;81.80;100510.38;124990;1312;108200;-72
2023/01/06 02:10:11;;;;;;;5.00;3.80;;;;;;;2.33;81.78;100516.34;125097;1304;107409;-71
2023/01/06 02:13:16;;;;;;;4.60;3.00;;;;;;;2.28;82.19;100516.50;125019;1313;107480;-73
2023/01/06 02:16:34;;;;;;;4.50;3.30;;;;;;;2.26;81.86;100519.05;125061;1317;106996;-71
2023/01/06 02:20:02;;;;;;;5.70;3.70;;;;;;;2.28;81.88;100519.13;125056;1313;107476;-71
2023/01/06 02:23:25;;;;;;;6.20;3.80;;;;;;;2.32;81.91;100520.79;125013;1312;107550;-71
2023/01/06 02:26:59;;;;;;;5.90;4.10;;;;;;;2.31;81.72;100525.09;124956;1312;107559;-71
2023/01/06 02:30:35;;;;;;;5.50;3.70;;;;;;;2.22;81.55;100525.29;125044;1310;107592;-70
2023/01/06 02:33:46;;;;;;;4.70;3.60;;;;;;;2.18;81.45;100533.95;124983;1312;107514;-70
2023/01/06 02:37:00;;;;;;;4.00;3.40;;;;;;;2.11;81.34;100534.52;124942;1313;108336;-71
2023/01/06 02:40:24;;;;;;;3.30;2.90;;;;;;;2.11;81.58;100539.10;125177;1313;108711;-71
2023/01/06 02:43:41;;;;;;;4.80;3.20;;;;;;;2.13;81.46;100544.12;125179;1313;108882;-71
2023/01/06 02:47:07;;;;;;;4.90;3.60;;;;;;;2.11;81.26;100554.73;125165;1313;107551;-71
2023/01/06 02:50:19;;;;;;;5.50;3.80;;;;;;;2.05;81.23;100556.81;125171;1312;107282;-72
2023/01/06 02:53:27;;;;;;;;;;;;;;;2.01;81.63;100559.88;125056;1313;107561;-71
2023/01/06 02:56:39;;;;;;;4.70;3.30;;;;;;;2.01;81.76;100561.81;124971;1312;107595;-71
2023/01/06 02:59:46;;;;;;;;;;;;;;;2.03;81.68;100572.78;125165;1312;107633;-71
2023/01/06 03:02:57;;;;;;;4.80;3.50;;;;;;;2.03;81.36;100578.90;125040;1312;106551;-71
2023/01/06 03:06:08;;;;;;;4.50;3.40;;;;;;;2.03;81.28;100576.25;124839;1312;107552;-71
2023/01/06 03:09:19;;;;;;;4.50;3.60;;;;;;;2.03;80.96;100576.23;125030;1313;107291;-72
2023/01/06 03:12:32;;;;;;;4.30;3.80;;;;;;;2.02;81.21;100571.94;125066;1312;107613;-71
2023/01/06 03:15:38;;;;;;;5.00;3.40;;;;;;;1.97;80.95;100580.09;125124;1312;107665;-71
2023/01/06 03:18:45;;;;;;;3.70;2.80;;;;;;;1.95;81.03;100579.00;125126;1312;108635;-72
2023/01/06 03:21:52;;;;;;;3.30;2.60;;;;;;;1.97;80.66;100589.04;125094;1316;107594;-71
2023/01/06 03:25:00;;;;;;;2.60;2.10;;;;;;;2.02;80.31;100589.85;125129;1312;107555;-72
2023/01/06 03:28:06;;;;;;;2.80;2.30;;;;;;;2.04;79.32;100591.29;125176;1302;107599;-71
2023/01/06 03:31:22;;;;;;;3.80;2.30;;;;;;;2.04;79.59;100595.30;124994;1313;107375;-70
2023/01/06 03:34:41;;;;;;;3.60;2.50;;;;;;;2.05;78.56;100603.88;125060;1303;107645;-71
2023/01/06 03:37:56;;;;;;;2.70;2.30;;;;;;;1.99;78.28;100603.52;125132;1312;107541;-70
2023/01/06 03:41:11;;;;;;;3.00;2.40;;;;;;;1.98;78.02;100608.30;125089;1312;107530;-71
2023/01/06 03:44:26;;;;;;;3.40;2.70;;;;;;;1.96;78.43;100615.41;125092;1311;107316;-71
2023/01/06 03:47:39;;;;;;;2.70;2.20;;;;;;;1.94;77.98;100617.46;125117;1312;107559;-73
2023/01/06 03:50:50;;;;;;;2.50;2.30;;;;;;;1.92;78.21;100621.27;125107;1305;107632;-71
2023/01/06 03:54:06;;;;;;;2.70;2.20;;;;;;;1.93;78.35;100620.33;125213;1311;107486;-71
2023/01/06 03:57:16;;;;;;;4.20;3.00;;;;;;;1.99;78.72;100619.84;125219;1310;106615;-71
2023/01/06 04:00:27;;;;;;;4.50;3.30;;;;;;;2.03;78.65;100623.13;125070;1305;109235;-71
2023/01/06 04:03:36;;;;;;;4.30;3.30;;;;;;;2.04;78.69;100623.75;125196;1308;106502;-72
2023/01/06 04:06:42;;;;;;;4.70;3.10;;;;;;;2.06;78.88;100627.86;125150;1310;107577;-71
2023/01/06 04:09:48;;;;;;;14.50;6.50;;;;;;;2.06;79.09;100627.49;125177;1303;108710;-71
2023/01/06 04:12:54;;;;;;;4.80;3.50;;;;;;;2.04;79.31;100633.73;125322;1312;107519;-73
2023/01/06 04:16:04;;;;;;;4.20;3.20;;;;;;;2.00;79.33;100627.52;125132;1312;107271;-73
2023/01/06 04:19:09;;;;;;;4.30;3.20;;;;;;;2.00;79.66;100628.52;125182;1317;107339;-71
2023/01/06 04:22:15;;;;;;;5.00;3.00;;;;;;;2.07;79.60;100630.79;125135;1316;107637;-71
2023/01/06 04:25:22;;;;;;;6.30;3.70;;;;;;;2.10;79.32;100632.18;125178;1309;108067;-71
2023/01/06 04:28:27;;;;;;;5.30;3.70;;;;;;;2.12;79.51;100628.86;125168;1313;106689;-71
2023/01/06 04:31:33;;;;;;;5.80;3.50;;;;;;;2.14;79.78;100629.67;125165;1308;107965;-71
2023/01/06 04:34:39;;;;;;;5.20;3.50;;;;;;;2.12;79.50;100635.02;125373;1308;107550;-72
2023/01/06 04:37:45;;;;;;;4.80;3.50;;;;;;;2.06;79.51;100631.33;125250;1309;107490;-72
2023/01/06 04:40:50;;;;;;;6.20;3.90;;;;;;;2.02;79.57;100629.87;125207;1311;105654;-74
2023/01/06 04:43:56;;;;;;;4.70;3.50;;;;;;;1.94;79.57;100638.86;125116;1312;107736;-71
2023/01/06 04:47:01;;;;;;;5.60;3.50;;;;;;;1.90;79.62;100640.55;125023;1303;107564;-71
2023/01/06 04:50:08;;;;;;;5.50;3.70;;;;;;;1.88;79.78;100643.98;125181;1313;108699;-71
2023/01/06 04:53:13;;;;;;;5.90;4.00;;;;;;;1.86;79.71;100636.89;125168;1312;106742;-71
2023/01/06 04:56:19;;;;;;;7.80;4.10;;;;;;;1.85;79.63;100636.79;125204;1304;107402;-71
2023/01/06 04:59:24;;;;;;;5.10;4.10;;;;;;;1.82;80.00;100639.42;125176;1311;107286;-71
2023/01/06 05:02:30;;;;;;;15.60;10.00;;;;;;;1.76;80.04;100634.13;125166;1313;107227;-71
2023/01/06 05:05:36;;;;;;;6.40;4.80;;;;;;;1.74;79.98;100644.23;125168;1316;109489;-71
2023/01/06 05:08:43;;;;;;;9.20;6.00;;;;;;;1.70;79.82;100650.56;125149;1312;107352;-71
2023/01/06 05:11:48;;;;;;;7.50;4.70;;;;;;;1.71;79.96;100648.09;125213;1312;107281;-71
2023/01/06 05:14:54;;;;;;;5.70;4.10;;;;;;;1.75;79.87;100649.77;125226;1313;109384;-71
2023/01/06 05:17:59;;;;;;;7.20;5.00;;;;;;;1.75;79.52;100649.26;125201;1312;107501;-72
2023/01/06 05:21:05;;;;;;;7.40;5.00;;;;;;;1.77;79.65;100652.83;125170;1317;108714;-72
2023/01/06 05:24:12;;;;;;;7.80;5.20;;;;;;;1.81;79.65;100655.42;125142;1311;106080;-73
2023/01/06 05:27:17;;;;;;;6.60;5.20;;;;;;;1.81;79.48;100662.10;125162;1304;107594;-72
2023/01/06 05:30:23;;;;;;;10.40;6.60;;;;;;;1.76;79.43;100668.16;125120;1313;107631;-73
2023/01/06 05:33:29;;;;;;;6.90;5.40;;;;;;;1.70;79.39;100673.55;125167;1312;107557;-72
2023/01/06 05:36:34;;;;;;;6.30;5.10;;;;;;;1.67;79.90;100687.61;125207;1315;107344;-72
2023/01/06 05:39:40;;;;;;;5.90;4.50;;;;;;;1.66;79.75;100688.88;125134;1303;107332;-72
2023/01/06 05:42:45;;;;;;;66.70;26.80;;;;;;;1.71;79.64;100683.00;125168;1309;107607;-72
2023/01/06 05:45:51;;;;;;;7.40;5.80;;;;;;;1.74;79.19;100682.46;125198;1313;107666;-72
2023/01/06 05:48:57;;;;;;;6.60;4.80;;;;;;;1.73;79.30;100684.95;125198;1303;107565;-72
2023/01/06 05:52:02;;;;;;;5.30;4.50;;;;;;;1.68;78.53;100695.77;125136;1311;107303;-70
2023/01/06 05:55:10;;;;;;;4.80;4.20;;;;;;;1.60;78.55;100695.86;125026;1313;108098;-70
2023/01/06 05:58:15;;;;;;;5.20;4.20;;;;;;;1.61;78.01;100697.22;125250;1303;107299;-71
2023/01/06 06:01:23;;;;;;;6.10;5.00;;;;;;;1.60;78.19;100702.92;125218;1313;107546;-71
2023/01/06 06:04:28;;;;;;;5.80;4.50;;;;;;;1.61;78.68;100707.04;125192;1311;107413;-71
2023/01/06 06:07:34;;;;;;;5.00;3.90;;;;;;;1.61;78.12;100709.88;125048;1311;107703;-71
2023/01/06 06:10:39;;;;;;;5.20;3.80;;;;;;;1.64;78.46;100709.00;125142;1315;107578;-71
2023/01/06 06:13:49;;;;;;;5.50;3.70;;;;;;;1.62;77.99;100709.78;125172;1313;106845;-71
2023/01/06 06:16:55;;;;;;;10.90;6.40;;;;;;;1.67;78.45;100708.65;125204;1313;107580;-71
2023/01/06 06:20:00;;;;;;;42.80;20.80;;;;;;;1.72;78.38;100710.48;125241;1307;107282;-72
2023/01/06 06:23:06;;;;;;;9.90;6.90;;;;;;;1.80;78.09;100718.79;125216;1313;106136;-72
2023/01/06 06:26:12;;;;;;;6.10;4.90;;;;;;;1.83;77.84;100721.10;125185;1312;108692;-73
2023/01/06 06:29:18;;;;;;;19.00;14.10;;;;;;;1.84;78.13;100720.15;125180;1312;107670;-73
2023/01/06 06:32:23;;;;;;;21.10;14.70;;;;;;;1.85;78.03;100723.41;125221;1304;107648;-72
2023/01/06 06:35:29;;;;;;;8.20;6.20;;;;;;;1.89;78.22;100728.63;125031;1312;108843;-72
2023/01/06 06:38:35;;;;;;;15.50;9.30;;;;;;;1.92;78.29;100730.05;125025;1312;107548;-72
2023/01/06 06:41:40;;;;;;;11.00;7.80;;;;;;;1.96;77.75;100734.37;124979;1311;107333;-70
2023/01/06 06:44:46;;;;;;;9.20;6.70;;;;;;;1.92;78.02;100739.84;124931;1312;108093;-73
2023/01/06 06:47:56;;;;;;;10.50;7.70;;;;;;;1.98;78.39;100735.70;125097;1312;108926;-71
2023/01/06 06:51:03;;;;;;;20.00;12.60;;;;;;;2.04;77.61;100737.80;125035;1312;108608;-71
2023/01/06 06:54:08;;;;;;;5.10;4.00;;;;;;;1.89;76.98;100737.39;125233;1312;107690;-72
2023/01/06 06:57:14;;;;;;;9.70;6.70;;;;;;;1.87;77.79;100733.66;125242;1309;107475;-72
2023/01/06 07:00:20;;;;;;;12.70;8.70;;;;;;;1.93;77.69;100737.90;125376;1311;107494;-72
2023/01/06 07:03:25;;;;;;;40.10;25.10;;;;;;;2.04;77.86;100742.57;125409;1303;108710;-72
2023/01/06 07:06:31;;;;;;;50.30;24.70;;;;;;;2.13;77.78;100741.50;125364;1315;107286;-72
2023/01/06 07:09:37;;;;;;;37.20;18.20;;;;;;;2.21;78.12;100746.16;125361;1311;108714;-72
2023/01/06 07:12:45;;;;;;;110.50;52.20;;;;;;;2.28;77.61;100748.01;125240;1313;107514;-72
2023/01/06 07:15:50;;;;;;;18.30;10.50;;;;;;;2.23;77.44;100753.57;125379;1299;107609;-71
2023/01/06 07:18:56;;;;;;;14.70;9.00;;;;;;;2.16;77.48;100752.05;125353;1302;107573;-72
2023/01/06 07:22:01;;;;;;;33.80;18.90;;;;;;;2.12;77.53;100752.56;125237;1303;107571;-72
2023/01/06 07:25:09;;;;;;;9.10;6.30;;;;;;;2.10;77.50;100755.55;125453;1296;107660;-72
2023/01/06 07:28:15;;;;;;;66.10;42.90;;;;;;;2.14;77.95;100763.58;125415;1295;107744;-74
2023/01/06 07:35:34;;;;;;;49.20;37.50;;;;;;;2.19;77.72;100776.63;125380;1299;107974;-70
2023/01/06 07:38:39;;;;;;;33.40;24.00;;;;;;;2.16;77.27;100778.39;125306;1295;108438;-71
2023/01/06 07:41:45;;;;;;;16.30;11.80;;;;;;;2.14;77.78;100775.11;125198;1295;107265;-70
2023/01/06 07:44:50;;;;;;;9.80;6.90;;;;;;;2.21;78.09;100764.73;125335;1295;108159;-73
2023/01/06 07:47:58;;;;;;;7.50;5.60;;;;;;;2.33;78.20;100767.08;125363;1308;107505;-73
2023/01/06 07:51:04;;;;;;;7.10;5.40;;;;;;;2.46;77.90;100767.05;125322;1316;108153;-71
2023/01/06 07:54:09;;;;;;;6.80;4.90;;;;;;;2.46;77.50;100765.77;125171;1304;106687;-71
2023/01/06 07:57:15;;;;;;;6.30;5.20;;;;;;;2.49;77.71;100765.65;125307;1303;107498;-74
2023/01/06 08:00:21;;;;;;;7.40;5.60;;;;;;;2.48;77.67;100767.09;125265;1309;107549;-75
2023/01/06 08:03:27;;;;;;;10.80;7.90;;;;;;;2.47;77.14;100768.38;125142;1311;208478;-84
2023/01/06 08:06:32;;;;;;;13.10;10.00;;;;;;;2.42;77.38;100771.98;125269;1309;107542;-75
2023/01/06 08:09:38;;;;;;;13.10;9.00;;;;;;;2.40;77.49;100774.04;125303;1311;107575;-76
2023/01/06 08:12:43;;;;;;;9.40;6.50;;;;;;;2.35;76.85;100776.06;125319;1312;108217;-75
2023/01/06 08:15:50;;;;;;;8.80;6.30;;;;;;;2.29;76.71;100775.02;125155;1308;107611;-75
2023/01/06 08:18:56;;;;;;;8.50;6.60;;;;;;;2.28;77.09;100778.23;125194;1313;108718;-75
2023/01/06 08:22:01;;;;;;;7.60;6.10;;;;;;;2.29;76.91;100785.70;125264;1312;107505;-78
2023/01/06 08:25:09;;;;;;;7.50;5.80;;;;;;;2.25;76.99;100791.73;125260;1313;108664;-76
2023/01/06 08:28:14;;;;;;;6.90;5.30;;;;;;;2.25;77.33;100800.00;125171;1295;107398;-75
2023/01/06 08:31:21;;;;;;;17.50;11.00;;;;;;;2.30;77.20;100800.76;125129;1308;107576;-74
2023/01/06 08:34:27;;;;;;;20.20;10.00;;;;;;;2.39;77.73;100800.77;125236;1312;107675;-73
2023/01/06 08:37:32;;;;;;;27.20;16.80;;;;;;;2.55;77.72;100796.21;125225;1312;107653;-74
2023/01/06 08:40:38;;;;;;;31.50;16.30;;;;;;;2.72;77.59;100797.16;125186;1317;106319;-74
2023/01/06 08:43:45;;;;;;;23.40;13.50;;;;;;;2.86;77.48;100792.61;125150;1303;107390;-73
2023/01/06 08:46:51;;;;;;;11.60;8.20;;;;;;;2.97;77.40;100793.73;125176;1310;107505;-75
2023/01/06 08:49:56;;;;;;;39.30;24.70;;;;;;;3.00;76.87;100798.49;125189;1308;106657;-74
2023/01/06 08:53:02;;;;;;;38.90;23.70;;;;;;;3.00;76.70;100787.77;125232;1310;107406;-75
2023/01/06 08:56:13;;;;;;;19.80;14.30;;;;;;;2.97;76.26;100785.48;125231;1312;107570;-74
2023/01/06 08:59:19;;;;;;;10.60;7.40;;;;;;;2.87;76.24;100795.02;125260;1312;107575;-74
2023/01/06 09:02:28;;;;;;;42.40;26.70;;;;;;;2.89;76.89;100801.05;125150;1313;107507;-73
2023/01/06 09:05:33;;;;;;;72.40;38.80;;;;;;;2.97;76.85;100797.94;125113;1312;107611;-76
2023/01/06 09:08:39;;;;;;;152.70;81.70;;;;;;;3.02;76.79;100800.27;125084;1318;108834;-74
2023/01/06 09:11:46;;;;;;;60.80;33.90;;;;;;;3.03;76.74;100805.00;125266;1319;108145;-76
2023/01/06 09:14:51;;;;;;;17.20;12.30;;;;;;;3.00;75.69;100799.03;125135;1319;107577;-75
2023/01/06 09:17:57;;;;;;;15.30;11.20;;;;;;;2.89;75.29;100797.51;125115;1309;107497;-74
2023/01/06 09:21:03;;;;;;;14.10;11.50;;;;;;;2.77;75.62;100796.16;125166;1317;107474;-75
2023/01/06 09:24:11;;;;;;;14.10;11.20;;;;;;;2.63;75.02;100800.79;125154;1312;107599;-75
2023/01/06 09:27:17;;;;;;;15.50;11.70;;;;;;;2.62;76.04;100800.89;125197;1309;107659;-74
2023/01/06 09:30:24;;;;;;;13.30;11.30;;;;;;;2.72;76.33;100797.46;125335;1311;108716;-74
2023/01/06 09:33:29;;;;;;;13.40;10.60;;;;;;;2.84;76.12;100783.24;125293;1309;107499;-74
2023/01/06 09:36:35;;;;;;;12.00;9.40;;;;;;;2.93;75.88;100781.84;125321;1309;108692;-74
2023/01/06 09:39:40;;;;;;;13.80;9.70;;;;;;;3.01;75.90;100784.55;125228;1316;107596;-76
2023/01/06 09:43:02;;;;;;;14.00;9.60;;;;;;;3.14;75.79;100779.73;125322;1308;107493;-76
2023/01/06 09:46:11;;;;;;;290.20;166.90;;;;;;;3.29;75.86;100792.86;125358;1316;107543;-75
2023/01/06 09:49:26;;;;;;;42.30;25.80;;;;;;;3.41;76.00;100793.39;125380;1313;107414;-74
2023/01/06 09:52:38;;;;;;;24.50;17.20;;;;;;;3.52;76.00;100794.64;125222;1311;107419;-74
2023/01/06 09:55:47;;;;;;;270.10;145.80;;;;;;;3.60;75.83;100793.79;125345;1313;107378;-75
2023/01/06 09:59:01;;;;;;;77.70;43.80;;;;;;;3.66;75.85;100791.84;125386;1311;107550;-76
2023/01/06 10:02:15;;;;;;;111.80;61.50;;;;;;;3.72;75.79;100782.14;125234;1306;105741;-73
2023/01/06 10:05:26;;;;;;;39.30;24.60;;;;;;;3.74;75.71;100772.68;125182;1309;107434;-74
2023/01/06 10:08:45;;;;;;;58.50;33.90;;;;;;;3.75;75.44;100774.41;125160;1313;107721;-73
2023/01/06 10:12:01;;;;;;;76.60;46.80;;;;;;;3.70;75.42;100774.19;125116;1311;107391;-73
2023/01/06 10:15:20;;;;;;;34.80;23.10;;;;;;;3.69;75.73;100773.03;125187;1313;107539;-73
2023/01/06 10:18:39;;;;;;;40.30;32.70;;;;;;;3.73;75.64;100778.39;125133;1312;106584;-74
2023/01/06 10:21:50;;;;;;;21.60;16.90;;;;;;;3.73;75.42;100775.02;125145;1310;108096;-73
2023/01/06 10:25:06;;;;;;;34.50;25.20;;;;;;;3.73;75.25;100770.31;125205;1312;107613;-74
2023/01/06 10:28:22;;;;;;;21.00;13.90;;;;;;;3.74;75.47;100775.84;125177;1313;108729;-74
2023/01/06 10:31:33;;;;;;;14.40;11.30;;;;;;;3.76;75.36;100772.42;125262;1316;107596;-75
2023/01/06 10:34:40;;;;;;;8.90;6.90;;;;;;;3.75;75.15;100769.62;125233;1316;107470;-74
2023/01/06 10:37:48;;;;;;;9.50;7.30;;;;;;;3.78;74.95;100760.85;125302;1302;108848;-74
2023/01/06 10:40:55;;;;;;;8.20;6.50;;;;;;;3.79;75.04;100746.86;125275;1299;107461;-72
2023/01/06 10:44:00;;;;;;;11.90;8.20;;;;;;;3.80;74.45;100727.45;125224;1309;108012;-74
2023/01/06 10:47:06;;;;;;;14.80;10.40;;;;;;;3.79;74.64;100733.19;125240;1303;106498;-77
2023/01/06 10:50:16;;;;;;;17.40;11.50;;;;;;;3.82;74.84;100732.23;125299;1312;108683;-74
2023/01/06 10:53:22;;;;;;;9.70;7.10;;;;;;;3.86;74.86;100717.73;125767;1300;107579;-75
2023/01/06 10:56:30;;;;;;;6.20;5.20;;;;;;;3.88;74.76;100705.81;125112;1303;107271;-72
2023/01/06 11:00:16;;;;;;;7.30;5.60;;;;;;;3.91;74.62;100699.26;125259;1299;107588;-73
2023/01/06 11:03:21;;;;;;;7.00;5.50;;;;;;;3.94;74.57;100696.61;125245;1304;107570;-74
2023/01/06 11:06:30;;;;;;;7.30;5.70;;;;;;;3.97;74.48;100700.86;125314;1308;108889;-76
2023/01/06 11:09:43;;;;;;;11.00;8.30;;;;;;;3.97;74.33;100700.66;125338;1302;106226;-76
2023/01/06 11:12:49;;;;;;;9.30;6.70;;;;;;;3.97;74.32;100696.44;125199;1312;108638;-78
2023/01/06 11:15:57;;;;;;;7.10;5.90;;;;;;;3.99;74.10;100698.45;125246;1313;107660;-75
2023/01/06 11:19:05;;;;;;;8.30;6.20;;;;;;;4.01;74.40;100693.55;125221;1311;107562;-75
2023/01/06 11:22:40;;;;;;;9.20;6.90;;;;;;;4.04;74.26;100682.27;125215;1311;107397;-75
2023/01/06 11:26:02;;;;;;;19.30;15.50;;;;;;;4.09;74.24;100688.42;125130;1302;107554;-75
2023/01/06 11:29:24;;;;;;;24.80;20.10;;;;;;;4.14;74.21;100683.17;125276;1311;107418;-72
2023/01/06 11:32:30;;;;;;;10.20;7.90;;;;;;;4.15;74.05;100682.05;125165;1309;107455;-76
2023/01/06 11:35:36;;;;;;;10.70;7.80;;;;;;;4.17;74.04;100693.41;125225;1312;107514;-76
2023/01/06 11:38:48;;;;;;;10.90;6.80;;;;;;;4.17;74.06;100689.88;125180;1312;108581;-74
2023/01/06 11:41:56;;;;;;;8.10;5.60;;;;;;;4.19;73.94;100678.80;125139;1310;107651;-74
2023/01/06 11:45:02;;;;;;;8.60;5.90;;;;;;;4.18;73.73;100678.02;125118;1315;107538;-74
2023/01/06 11:48:14;;;;;;;10.60;7.70;;;;;;;4.15;73.81;100676.06;125232;1312;106582;-73
2023/01/06 11:51:44;;;;;;;9.10;6.90;;;;;;;4.18;73.95;100671.11;125152;1313;107578;-74
2023/01/06 11:54:59;;;;;;;37.60;19.50;;;;;;;4.20;73.89;100662.52;125133;1316;107859;-73
2023/01/06 11:58:11;;;;;;;383.10;153.60;;;;;;;4.20;73.62;100657.59;125160;1316;107553;-73
2023/01/06 12:01:27;;;;;;;77.10;28.10;;;;;;;4.20;73.70;100652.66;125157;1309;107590;-72
2023/01/06 12:04:42;;;;;;;23.80;10.90;;;;;;;4.23;73.52;100649.14;125157;1306;107404;-73
2023/01/06 12:07:52;;;;;;;15.60;8.50;;;;;;;4.26;73.62;100641.16;125137;1309;107443;-74
2023/01/06 12:11:03;;;;;;;33.00;15.40;;;;;;;4.28;73.45;100633.77;125264;1312;107591;-75
2023/01/06 12:14:15;;;;;;;15.70;9.20;;;;;;;4.32;73.57;100631.99;126815;1292;106602;-76
2023/01/06 12:17:39;;;;;;;11.90;7.70;;;;;;;4.34;73.24;100626.92;125644;1299;107419;-74
2023/01/06 12:20:47;;;;;;;10.40;7.80;;;;;;;4.35;73.36;100617.30;125411;1302;107307;-73
2023/01/06 12:23:55;;;;;;;11.90;7.60;;;;;;;4.36;73.11;100613.09;125192;1302;107502;-73
2023/01/06 12:27:04;;;;;;;11.00;7.70;;;;;;;4.32;73.15;100610.11;125182;1305;107587;-73
2023/01/06 12:30:17;;;;;;;12.00;7.90;;;;;;;4.32;73.25;100605.91;125112;1312;108720;-73
2023/01/06 12:33:29;;;;;;;9.30;7.20;;;;;;;4.30;73.11;100598.98;125254;1309;107604;-76
2023/01/06 12:36:41;;;;;;;10.40;7.10;;;;;;;4.29;73.15;100599.26;125510;1301;107089;-73
2023/01/06 12:39:55;;;;;;;11.20;7.40;;;;;;;4.25;72.99;100591.41;125195;1302;108724;-75
2023/01/06 12:43:14;;;;;;;10.80;7.00;;;;;;;4.21;72.87;100587.42;125598;1303;107551;-73
2023/01/06 12:46:26;;;;;;;9.80;7.00;;;;;;;4.18;73.05;100587.98;125602;1296;107577;-75
2023/01/06 12:49:39;;;;;;;9.80;7.00;;;;;;;4.16;73.09;100582.02;125253;1302;107781;-74
2023/01/06 12:52:51;;;;;;;13.90;9.20;;;;;;;4.11;72.88;100584.45;125256;1302;107576;-75
2023/01/06 12:56:15;;;;;;;19.40;11.30;;;;;;;4.09;72.89;100586.70;125219;1316;107561;-74
2023/01/06 12:59:33;;;;;;;18.30;11.00;;;;;;;4.05;72.94;100583.59;125651;1308;107561;-74
2023/01/06 13:02:54;;;;;;;17.30;12.70;;;;;;;4.05;73.01;100584.61;125453;1302;107626;-75
2023/01/06 13:06:11;;;;;;;27.80;18.20;;;;;;;4.06;72.91;100582.27;125633;1295;107484;-74
2023/01/06 13:09:30;;;;;;;19.30;12.20;;;;;;;4.06;72.80;100581.08;125711;1297;108531;-75
2023/01/06 13:13:01;;;;;;;19.20;12.60;;;;;;;4.04;72.82;100569.42;125393;1302;106538;-74
2023/01/06 13:16:16;;;;;;;15.50;10.20;;;;;;;3.98;72.62;100556.05;125163;1309;107546;-80
2023/01/06 13:19:36;;;;;;;17.70;11.60;;;;;;;3.92;72.85;100539.92;125220;1312;107521;-79
2023/01/06 13:22:54;;;;;;;16.40;10.20;;;;;;;3.88;72.74;100521.88;125234;1313;107619;-79
2023/01/06 13:26:18;;;;;;;15.10;10.20;;;;;;;3.85;72.76;100511.36;125172;1316;107535;-75
2023/01/06 13:29:39;;;;;;;18.70;11.70;;;;;;;3.82;72.73;100499.94;125181;1319;107442;-76
2023/01/06 13:33:06;;;;;;;22.70;13.10;;;;;;;3.78;72.44;100493.70;125233;1315;107666;-75
2023/01/06 13:36:53;;;;;;;26.40;13.80;;;;;;;3.72;72.66;100488.63;125227;1309;107579;-78
2023/01/06 13:40:02;;;;;;;19.20;11.80;;;;;;;3.71;72.58;100493.09;124497;1319;107245;-80
2023/01/06 13:43:15;;;;;;;16.50;10.70;;;;;;;3.63;72.24;100491.21;125323;1312;108031;-77
2023/01/06 13:46:24;;;;;;;15.80;10.80;;;;;;;3.56;72.44;100496.60;125295;1315;107393;-77
2023/01/06 13:49:31;;;;;;;15.20;10.70;;;;;;;3.52;72.46;100508.98;125286;1301;108643;-75
2023/01/06 13:52:37;;;;;;;14.30;9.30;;;;;;;3.48;72.53;100517.84;125521;1316;107662;-78
2023/01/06 13:55:42;;;;;;;15.90;9.70;;;;;;;3.47;72.59;100524.98;125585;1315;107546;-75
2023/01/06 13:58:49;;;;;;;24.10;11.40;;;;;;;3.47;72.60;100525.49;125137;1316;107523;-75
2023/01/06 14:01:58;;;;;;;63.00;22.00;;;;;;;3.50;72.75;100530.03;125145;1309;107594;-74
2023/01/06 14:05:05;;;;;;;106.20;30.20;;;;;;;3.55;72.58;100535.70;125120;1313;107288;-74
2023/01/06 14:08:18;;;;;;;97.00;30.50;;;;;;;3.63;72.79;100546.07;125191;1310;107533;-76
2023/01/06 14:11:28;;;;;;;60.50;23.60;;;;;;;3.71;72.55;100550.27;125242;1311;107365;-77
2023/01/06 14:14:37;;;;;;;70.70;25.00;;;;;;;3.73;72.42;100558.77;125193;1307;107316;-75
2023/01/06 14:17:45;;;;;;;37.30;16.90;;;;;;;3.75;72.36;100565.19;125136;1312;107398;-76
2023/01/06 14:21:02;;;;;;;25.10;13.90;;;;;;;3.74;72.47;100571.39;125163;1310;107674;-74
2023/01/06 14:24:19;;;;;;;26.30;14.90;;;;;;;3.72;72.48;100570.33;125147;1310;107838;-82
2023/01/06 14:28:04;;;;;;;25.20;13.20;;;;;;;3.67;72.38;100570.11;125271;1311;107406;-80
2023/01/06 14:31:47;;;;;;;21.60;13.00;;;;;;;3.62;72.65;100562.14;125168;1309;107549;-76